Time;durP1;ratioP1;P1;durP2;ratioP2;P2;SDS_P1;SDS_P2;PMS_P1;PMS_P2;Temp;Humidity;BMP_temperature;BMP_pressure;BME280_temperature;BME280_humidity;BME280_pressure;Samples;Min_cycle;Max_cycle;Signal;HPM_P1;HPM_P2
2021/09/03 00:01:13;;;;;;;30.85;17.55;;;13.40;96.70;;;;;;4991065;28;20122;-53
2021/09/03 00:03:39;;;;;;;33.83;17.00;;;13.30;96.70;;;;;;4991642;28;20082;-53
2021/09/03 00:06:05;;;;;;;33.45;17.75;;;13.40;96.60;;;;;;4990872;28;20048;-55
2021/09/03 00:08:31;;;;;;;35.00;17.25;;;13.40;96.70;;;;;;4967191;28;20039;-54
2021/09/03 00:10:57;;;;;;;27.75;16.67;;;13.30;96.80;;;;;;4950832;28;20045;-53
2021/09/03 00:13:23;;;;;;;33.33;17.05;;;13.30;96.80;;;;;;4991880;28;20126;-52
2021/09/03 00:15:48;;;;;;;32.22;16.95;;;13.30;96.80;;;;;;4991214;28;20038;-56
2021/09/03 00:18:14;;;;;;;34.90;17.25;;;13.30;96.70;;;;;;4990704;28;20039;-54
2021/09/03 00:20:40;;;;;;;34.22;17.08;;;13.30;96.80;;;;;;4982653;28;20038;-50
2021/09/03 00:23:05;;;;;;;32.17;17.50;;;13.30;97.00;;;;;;4952281;28;20130;-54
2021/09/03 00:25:31;;;;;;;32.38;18.10;;;13.30;96.80;;;;;;4990979;28;20487;-56
2021/09/03 00:27:56;;;;;;;33.88;17.80;;;13.20;96.90;;;;;;4991274;28;20038;-54
2021/09/03 00:30:22;;;;;;;36.50;17.95;;;13.20;97.00;;;;;;4990729;28;20042;-54
2021/09/03 00:32:47;;;;;;;33.00;17.45;;;13.20;97.10;;;;;;4991156;28;20048;-51
2021/09/03 00:35:13;;;;;;;31.85;16.52;;;13.20;96.90;;;;;;4988078;28;20056;-54
2021/09/03 00:37:38;;;;;;;36.45;18.25;;;13.20;96.90;;;;;;4973204;28;20502;-54
2021/09/03 00:40:05;;;;;;;31.08;17.92;;;13.20;96.90;;;;;;4994746;28;20447;-53
2021/09/03 00:42:31;;;;;;;33.47;17.85;;;13.20;97.10;;;;;;4994783;28;20035;-56
2021/09/03 00:44:57;;;;;;;31.63;17.85;;;13.10;97.10;;;;;;4989084;28;20104;-54
2021/09/03 00:47:23;;;;;;;36.25;18.70;;;13.20;97.00;;;;;;4993195;28;20041;-52
2021/09/03 00:49:49;;;;;;;32.20;17.30;;;13.20;97.10;;;;;;4991869;28;20576;-51
2021/09/03 00:52:15;;;;;;;34.95;17.88;;;13.20;97.10;;;;;;4977235;28;20573;-51
2021/09/03 00:54:41;;;;;;;35.20;17.73;;;13.10;97.20;;;;;;4994425;28;20034;-50
2021/09/03 00:57:08;;;;;;;34.33;17.13;;;13.10;97.20;;;;;;4950465;28;20043;-51
2021/09/03 00:59:33;;;;;;;33.63;18.60;;;13.10;97.10;;;;;;4985125;28;20042;-53
2021/09/03 01:01:59;;;;;;;34.13;17.60;;;13.10;97.30;;;;;;4988100;28;20061;-51
2021/09/03 01:04:25;;;;;;;34.33;17.95;;;13.10;97.20;;;;;;4958193;28;20050;-53
2021/09/03 01:06:51;;;;;;;31.35;18.08;;;13.00;97.30;;;;;;4956580;28;20050;-56
2021/09/03 01:09:17;;;;;;;36.45;17.90;;;13.00;97.20;;;;;;4987173;28;20129;-50
2021/09/03 01:11:43;;;;;;;35.67;18.45;;;13.10;97.30;;;;;;4979529;28;20388;-51
2021/09/03 01:14:08;;;;;;;39.60;18.23;;;13.00;97.40;;;;;;4975744;28;20057;-54
2021/09/03 01:16:34;;;;;;;31.48;17.75;;;13.00;97.30;;;;;;4959658;28;20047;-52
2021/09/03 01:19:00;;;;;;;29.38;17.40;;;13.00;97.40;;;;;;4982655;28;20113;-51
2021/09/03 01:21:27;;;;;;;32.03;17.77;;;13.00;97.40;;;;;;4974143;28;20387;-50
2021/09/03 01:23:53;;;;;;;33.30;17.98;;;13.00;97.50;;;;;;4964354;28;20491;-53
2021/09/03 01:26:19;;;;;;;38.65;18.58;;;13.00;97.30;;;;;;4958663;28;20053;-55
2021/09/03 01:28:48;;;;;;;34.50;18.05;;;13.00;97.30;;;;;;4992944;28;20458;-49
2021/09/03 01:31:15;;;;;;;36.22;18.98;;;13.00;97.30;;;;;;4996476;28;20042;-49
2021/09/03 01:33:40;;;;;;;35.38;18.38;;;12.90;97.40;;;;;;4990640;28;20088;-54
2021/09/03 01:36:06;;;;;;;37.17;18.08;;;12.90;97.40;;;;;;4991191;28;20137;-52
2021/09/03 01:38:32;;;;;;;29.48;17.65;;;13.00;97.50;;;;;;4962756;28;20169;-52
2021/09/03 01:40:58;;;;;;;33.90;17.85;;;13.00;97.40;;;;;;4970328;28;20507;-51
2021/09/03 01:43:24;;;;;;;34.60;17.73;;;12.90;97.30;;;;;;4962153;28;20105;-51
2021/09/03 01:45:49;;;;;;;32.78;17.52;;;12.80;97.60;;;;;;4972450;28;20039;-53
2021/09/03 01:48:15;;;;;;;31.73;17.63;;;12.90;97.50;;;;;;4967469;28;20086;-51
2021/09/03 01:50:40;;;;;;;36.17;18.77;;;12.80;97.50;;;;;;4994554;28;20044;-50
2021/09/03 01:53:06;;;;;;;33.97;18.63;;;12.90;97.60;;;;;;4986988;28;20088;-52
2021/09/03 01:55:32;;;;;;;36.88;18.25;;;12.80;97.60;;;;;;4969515;28;20133;-54
2021/09/03 01:57:59;;;;;;;37.33;19.27;;;12.90;97.60;;;;;;4926947;28;1006156;-51
2021/09/03 02:00:26;;;;;;;36.95;18.52;;;12.90;97.60;;;;;;4984148;28;20093;-51
2021/09/03 02:02:52;;;;;;;34.65;17.42;;;12.90;97.60;;;;;;4958736;28;20034;-52
2021/09/03 02:05:17;;;;;;;29.05;18.25;;;12.80;97.60;;;;;;4960826;28;20050;-52
2021/09/03 02:07:43;;;;;;;38.08;18.98;;;12.80;97.70;;;;;;4993738;28;20519;-51
2021/09/03 02:10:09;;;;;;;37.40;19.00;;;12.80;97.80;;;;;;4989012;28;20046;-54
2021/09/03 02:12:35;;;;;;;34.33;18.73;;;12.80;97.70;;;;;;4994575;28;20050;-54
2021/09/03 02:15:01;;;;;;;39.25;18.50;;;12.70;97.70;;;;;;4977162;28;20054;-54
2021/09/03 02:17:27;;;;;;;31.98;19.15;;;12.70;97.80;;;;;;4977657;28;20049;-53
2021/09/03 02:19:52;;;;;;;33.58;18.50;;;12.70;97.80;;;;;;4964288;28;20035;-54
2021/09/03 02:22:18;;;;;;;30.67;17.63;;;12.70;97.90;;;;;;4972079;28;20035;-54
2021/09/03 02:24:43;;;;;;;27.55;16.17;;;12.60;97.80;;;;;;4981660;28;20027;-55
2021/09/03 02:27:09;;;;;;;29.33;17.67;;;12.60;97.80;;;;;;4986962;28;20039;-52
2021/09/03 02:29:34;;;;;;;34.47;18.25;;;12.60;97.80;;;;;;4972581;28;20046;-56
2021/09/03 02:32:00;;;;;;;32.30;18.40;;;12.60;97.80;;;;;;4989894;28;20504;-56
2021/09/03 02:34:26;;;;;;;34.55;19.10;;;12.60;97.80;;;;;;4970164;28;20038;-56
2021/09/03 02:36:51;;;;;;;33.85;17.33;;;12.60;97.90;;;;;;4993177;28;20046;-52
2021/09/03 02:39:17;;;;;;;37.05;18.90;;;12.60;97.80;;;;;;4992929;28;20145;-53
2021/09/03 02:41:43;;;;;;;32.55;17.40;;;12.60;97.90;;;;;;4992049;28;20037;-54
2021/09/03 02:44:09;;;;;;;37.38;19.50;;;12.50;97.90;;;;;;4990282;28;20521;-54
2021/09/03 02:46:34;;;;;;;33.38;18.13;;;12.50;97.90;;;;;;4998805;28;20042;-53
2021/09/03 02:49:00;;;;;;;38.13;19.20;;;12.50;98.00;;;;;;4988503;28;20038;-54
2021/09/03 02:51:25;;;;;;;35.50;19.52;;;12.50;98.00;;;;;;4969137;28;20038;-52
2021/09/03 02:53:51;;;;;;;34.25;18.45;;;12.50;98.00;;;;;;4987652;28;20050;-55
2021/09/03 02:56:17;;;;;;;40.35;19.08;;;12.50;98.00;;;;;;4988102;28;20045;-54
2021/09/03 02:58:42;;;;;;;35.65;19.08;;;12.50;98.10;;;;;;4987960;28;20035;-50
2021/09/03 03:01:08;;;;;;;35.40;17.73;;;12.50;98.00;;;;;;4969395;28;20042;-50
2021/09/03 03:03:34;;;;;;;43.33;19.48;;;12.40;98.20;;;;;;4956410;28;20035;-53
2021/09/03 03:05:59;;;;;;;35.30;18.35;;;12.50;98.20;;;;;;4960569;28;20121;-54
2021/09/03 03:08:25;;;;;;;33.47;18.20;;;12.40;98.20;;;;;;4991128;28;20053;-51
2021/09/03 03:10:51;;;;;;;35.92;18.58;;;12.50;98.10;;;;;;4968586;28;20499;-56
2021/09/03 03:13:21;;;;;;;39.97;19.38;;;12.50;98.10;;;;;;4990228;28;20045;-53
2021/09/03 03:15:48;;;;;;;37.92;18.15;;;12.50;98.00;;;;;;4960941;28;20053;-55
2021/09/03 03:18:14;;;;;;;37.00;19.50;;;12.50;98.10;;;;;;4975521;28;20572;-56
2021/09/03 03:20:40;;;;;;;33.92;18.92;;;12.40;98.10;;;;;;4986511;28;20038;-54
2021/09/03 03:23:06;;;;;;;32.83;18.40;;;12.40;98.20;;;;;;4994603;28;20034;-53
2021/09/03 03:25:32;;;;;;;34.05;18.38;;;12.40;98.30;;;;;;4993200;28;20045;-54
2021/09/03 03:27:57;;;;;;;36.45;19.48;;;12.40;98.20;;;;;;4973283;28;20043;-55
2021/09/03 03:30:23;;;;;;;36.35;17.65;;;12.50;98.30;;;;;;4987264;28;20042;-54
2021/09/03 03:32:48;;;;;;;36.75;19.00;;;12.40;98.10;;;;;;4992073;28;20495;-57
2021/09/03 03:35:14;;;;;;;31.42;18.17;;;12.40;98.10;;;;;;4987250;28;20039;-57
2021/09/03 03:37:40;;;;;;;35.25;17.55;;;12.30;98.10;;;;;;4988638;28;20486;-57
2021/09/03 03:40:06;;;;;;;43.10;18.77;;;12.30;98.10;;;;;;4985779;28;20069;-54
2021/09/03 03:42:32;;;;;;;35.50;18.70;;;12.30;98.30;;;;;;4989225;28;20422;-55
2021/09/03 03:44:58;;;;;;;28.83;17.35;;;12.30;98.20;;;;;;4985378;28;20045;-57
2021/09/03 03:47:23;;;;;;;31.83;16.00;;;12.20;98.20;;;;;;4995992;28;20410;-57
2021/09/03 03:49:49;;;;;;;36.42;19.15;;;12.20;98.30;;;;;;4985673;28;20038;-54
2021/09/03 03:52:14;;;;;;;31.40;18.02;;;12.20;98.30;;;;;;4991606;28;20034;-56
2021/09/03 03:54:40;;;;;;;33.97;18.70;;;12.20;98.30;;;;;;4990841;28;20041;-56
2021/09/03 03:57:05;;;;;;;35.15;18.27;;;12.20;98.30;;;;;;4991433;28;20034;-54
2021/09/03 03:59:31;;;;;;;39.20;19.80;;;12.10;98.50;;;;;;4976797;28;20105;-58
2021/09/03 04:01:57;;;;;;;35.10;18.60;;;12.10;98.30;;;;;;4958058;28;20042;-56
2021/09/03 04:04:22;;;;;;;35.75;20.00;;;12.10;98.40;;;;;;4975626;28;20092;-56
2021/09/03 04:06:49;;;;;;;37.67;19.90;;;12.20;98.50;;;;;;4994844;28;20050;-57
2021/09/03 04:09:15;;;;;;;36.65;20.65;;;12.10;98.60;;;;;;4960617;28;20046;-56
2021/09/03 04:11:41;;;;;;;38.83;20.25;;;12.20;98.60;;;;;;4960622;28;20031;-55
2021/09/03 04:14:08;;;;;;;41.80;20.80;;;12.20;98.70;;;;;;4971851;28;20130;-56
2021/09/03 04:16:34;;;;;;;41.92;20.23;;;12.20;98.70;;;;;;4995297;28;20117;-57
2021/09/03 04:18:59;;;;;;;38.38;19.10;;;12.10;98.70;;;;;;4966842;28;20042;-57
2021/09/03 04:21:25;;;;;;;40.17;19.60;;;12.20;98.70;;;;;;4997249;28;20038;-56
2021/09/03 04:23:50;;;;;;;36.95;19.83;;;12.20;98.60;;;;;;4978911;28;20031;-55
2021/09/03 04:26:16;;;;;;;40.38;19.83;;;12.30;98.50;;;;;;4996095;28;20431;-56
2021/09/03 04:28:43;;;;;;;43.00;19.67;;;12.20;98.40;;;;;;4999251;28;20041;-56
2021/09/03 04:31:10;;;;;;;36.38;19.75;;;12.20;98.50;;;;;;4978011;28;20050;-55
2021/09/03 04:33:35;;;;;;;42.63;19.83;;;12.20;98.40;;;;;;4996220;28;20050;-57
2021/09/03 04:36:01;;;;;;;39.05;19.13;;;12.20;98.60;;;;;;4992188;28;20046;-56
2021/09/03 04:38:27;;;;;;;35.67;19.50;;;12.20;98.50;;;;;;4982240;28;20038;-57
2021/09/03 04:40:53;;;;;;;38.22;19.25;;;12.20;98.60;;;;;;4994364;28;20038;-56
2021/09/03 04:43:19;;;;;;;38.92;19.05;;;12.20;98.70;;;;;;4996261;28;20038;-54
2021/09/03 04:45:45;;;;;;;35.53;18.60;;;12.20;98.70;;;;;;4949756;28;20082;-56
2021/09/03 04:48:11;;;;;;;37.20;18.92;;;12.10;98.60;;;;;;4991067;28;20049;-55
2021/09/03 04:50:36;;;;;;;41.30;18.50;;;12.10;98.70;;;;;;4998335;28;20084;-55
2021/09/03 04:53:02;;;;;;;27.25;15.40;;;12.10;98.70;;;;;;4986146;28;20046;-54
2021/09/03 04:55:28;;;;;;;35.38;17.80;;;12.10;98.50;;;;;;4996937;28;20042;-56
2021/09/03 04:57:53;;;;;;;30.02;16.30;;;12.00;98.50;;;;;;4964310;28;20404;-54
2021/09/03 05:00:20;;;;;;;35.45;17.67;;;12.00;98.50;;;;;;4990367;28;20092;-54
2021/09/03 05:02:46;;;;;;;34.80;18.35;;;12.00;98.50;;;;;;4993724;28;20034;-53
2021/09/03 05:05:11;;;;;;;34.35;18.15;;;12.00;98.50;;;;;;4991613;28;20121;-54
2021/09/03 05:07:37;;;;;;;39.95;19.73;;;12.00;98.50;;;;;;4994101;28;20038;-52
2021/09/03 05:10:06;;;;;;;33.80;17.83;;;11.90;98.70;;;;;;4994819;28;20053;-51
2021/09/03 05:12:31;;;;;;;32.05;18.05;;;11.90;98.80;;;;;;4994695;28;20061;-54
2021/09/03 05:14:58;;;;;;;41.38;19.15;;;12.00;98.70;;;;;;4994966;28;20046;-54
2021/09/03 05:17:23;;;;;;;24.75;15.52;;;12.00;98.70;;;;;;4992184;28;20263;-54
2021/09/03 05:19:49;;;;;;;26.17;13.98;;;12.00;98.70;;;;;;4996972;28;20034;-54
2021/09/03 05:22:16;;;;;;;39.72;19.08;;;12.00;98.50;;;;;;4984325;28;20045;-51
2021/09/03 05:24:41;;;;;;;32.83;18.70;;;12.00;98.70;;;;;;4986563;28;20041;-50
2021/09/03 05:27:07;;;;;;;31.75;18.23;;;12.10;98.60;;;;;;4993528;28;20491;-50
2021/09/03 05:29:32;;;;;;;25.52;13.77;;;12.10;98.70;;;;;;4995668;28;20085;-51
2021/09/03 05:31:58;;;;;;;26.98;13.75;;;12.00;98.40;;;;;;4995990;28;20518;-54
2021/09/03 05:34:23;;;;;;;27.20;15.05;;;12.00;98.00;;;;;;4994578;28;20038;-51
2021/09/03 05:36:49;;;;;;;30.65;15.80;;;12.00;98.20;;;;;;4996067;28;20078;-51
2021/09/03 05:39:15;;;;;;;33.83;17.20;;;11.90;98.20;;;;;;4992284;28;20085;-56
2021/09/03 05:41:41;;;;;;;33.08;16.50;;;11.90;98.30;;;;;;4988863;28;20045;-56
2021/09/03 05:44:06;;;;;;;20.30;12.75;;;12.00;98.50;;;;;;4977477;28;20129;-55
2021/09/03 05:46:33;;;;;;;18.95;11.45;;;12.00;98.30;;;;;;4997676;28;20107;-56
2021/09/03 05:48:58;;;;;;;26.85;15.77;;;11.90;98.00;;;;;;4989243;28;20046;-56
2021/09/03 05:51:24;;;;;;;23.38;12.27;;;11.90;98.10;;;;;;4989316;28;20044;-57
2021/09/03 05:53:49;;;;;;;28.33;16.08;;;11.90;98.00;;;;;;4994129;28;20042;-56
2021/09/03 05:56:15;;;;;;;25.60;14.30;;;11.90;98.10;;;;;;4993449;28;20518;-54
2021/09/03 05:58:40;;;;;;;31.85;16.92;;;12.00;98.10;;;;;;4990441;28;20035;-54
2021/09/03 06:01:06;;;;;;;33.95;17.42;;;12.00;98.40;;;;;;4993693;28;20042;-54
2021/09/03 06:03:32;;;;;;;32.75;17.27;;;12.10;98.60;;;;;;4993832;28;20043;-52
2021/09/03 06:05:58;;;;;;;35.40;18.20;;;12.20;98.70;;;;;;4996089;28;20200;-54
2021/09/03 06:08:24;;;;;;;37.33;18.23;;;12.30;98.90;;;;;;4994219;28;20042;-52
2021/09/03 06:10:49;;;;;;;33.45;18.58;;;12.40;98.90;;;;;;4994536;28;20165;-52
2021/09/03 06:13:15;;;;;;;38.38;19.10;;;12.40;98.90;;;;;;4988962;28;20121;-53
2021/09/03 06:15:41;;;;;;;34.85;18.60;;;12.40;98.80;;;;;;4995691;28;20042;-56
2021/09/03 06:18:06;;;;;;;39.05;19.65;;;12.50;98.90;;;;;;4992036;28;20554;-57
2021/09/03 06:20:32;;;;;;;36.35;18.27;;;12.50;98.70;;;;;;4992778;28;20035;-57
2021/09/03 06:22:58;;;;;;;43.15;19.63;;;12.60;98.90;;;;;;4988659;28;20041;-56
2021/09/03 06:25:24;;;;;;;37.13;18.90;;;12.60;98.60;;;;;;4983905;28;20046;-56
2021/09/03 06:27:51;;;;;;;40.65;18.77;;;12.70;98.60;;;;;;4991389;28;20506;-56
2021/09/03 06:30:16;;;;;;;33.20;17.77;;;12.70;98.60;;;;;;4932586;28;20435;-56
2021/09/03 06:32:42;;;;;;;37.47;18.30;;;12.70;98.60;;;;;;4988223;28;20046;-57
2021/09/03 06:35:08;;;;;;;33.47;17.80;;;12.70;98.70;;;;;;4974508;28;20081;-57
2021/09/03 06:37:34;;;;;;;30.38;17.55;;;12.90;98.50;;;;;;4979453;28;20035;-56
2021/09/03 06:40:00;;;;;;;32.05;17.90;;;12.90;98.30;;;;;;4990698;28;20039;-57
2021/09/03 06:42:28;;;;;;;34.25;17.05;;;12.90;98.40;;;;;;4992309;28;20039;-57
2021/09/03 06:44:54;;;;;;;34.03;17.65;;;13.10;98.20;;;;;;4992392;28;20042;-56
2021/09/03 06:47:19;;;;;;;31.77;17.10;;;13.10;98.30;;;;;;4974988;28;20048;-58
2021/09/03 06:49:46;;;;;;;37.38;17.80;;;13.10;98.20;;;;;;4981017;28;20068;-58
2021/09/03 06:52:13;;;;;;;31.58;17.88;;;13.20;98.30;;;;;;4991974;28;20122;-58
2021/09/03 06:54:39;;;;;;;33.30;18.55;;;13.30;98.30;;;;;;4991929;28;20154;-57
2021/09/03 06:57:05;;;;;;;32.45;17.65;;;13.30;98.40;;;;;;4979244;28;20061;-57
2021/09/03 06:59:31;;;;;;;35.58;17.77;;;13.30;98.60;;;;;;4987302;28;20058;-58
2021/09/03 07:01:57;;;;;;;31.90;18.05;;;13.40;98.70;;;;;;4988017;28;20031;-57
2021/09/03 07:04:23;;;;;;;31.67;17.27;;;13.40;98.60;;;;;;4985926;28;20116;-58
2021/09/03 07:06:52;;;;;;;28.50;17.20;;;13.50;98.60;;;;;;4982568;28;20130;-58
2021/09/03 07:09:19;;;;;;;33.22;18.27;;;13.60;98.60;;;;;;4970560;28;20057;-59
2021/09/03 07:11:46;;;;;;;34.15;18.55;;;13.70;98.30;;;;;;4952780;28;20566;-57
2021/09/03 07:14:12;;;;;;;35.45;18.40;;;13.80;98.00;;;;;;4951875;28;20049;-58
2021/09/03 07:16:38;;;;;;;30.08;17.33;;;13.90;97.90;;;;;;4990808;28;20126;-58
2021/09/03 07:19:04;;;;;;;32.30;17.70;;;14.00;97.80;;;;;;4935553;28;20121;-58
2021/09/03 07:21:32;;;;;;;32.17;17.95;;;14.10;97.20;;;;;;4981289;28;20121;-58
2021/09/03 07:23:59;;;;;;;31.67;18.98;;;14.20;97.00;;;;;;4948692;28;20038;-58
2021/09/03 07:26:25;;;;;;;35.42;18.60;;;14.30;97.00;;;;;;4991744;28;20443;-57
2021/09/03 07:28:50;;;;;;;31.02;17.85;;;14.40;96.80;;;;;;4971651;28;20351;-58
2021/09/03 07:31:16;;;;;;;31.92;18.00;;;14.50;96.30;;;;;;4971621;28;20118;-58
2021/09/03 07:33:42;;;;;;;30.65;17.95;;;14.60;96.60;;;;;;4953708;28;20062;-57
2021/09/03 07:36:07;;;;;;;33.40;18.25;;;14.70;96.60;;;;;;4990602;28;20058;-52
2021/09/03 07:38:34;;;;;;;34.55;18.00;;;14.80;96.70;;;;;;4982593;28;20038;-56
2021/09/03 07:41:00;;;;;;;32.55;18.73;;;14.90;96.50;;;;;;4962705;28;20049;-55
2021/09/03 07:43:25;;;;;;;35.63;19.25;;;15.00;96.50;;;;;;4990516;28;20042;-52
2021/09/03 07:45:51;;;;;;;37.45;18.50;;;15.10;96.40;;;;;;4984792;28;20042;-55
2021/09/03 07:48:17;;;;;;;32.20;18.05;;;15.20;96.30;;;;;;4990360;28;20034;-55
2021/09/03 07:50:43;;;;;;;32.80;18.27;;;15.40;96.10;;;;;;4957875;28;20510;-55
2021/09/03 07:53:11;;;;;;;32.78;18.80;;;15.50;95.90;;;;;;4992796;28;20051;-53
2021/09/03 07:55:37;;;;;;;31.40;18.55;;;15.60;95.80;;;;;;4991742;28;20038;-53
2021/09/03 07:58:05;;;;;;;37.33;19.17;;;15.70;95.10;;;;;;4988869;28;20042;-55
2021/09/03 08:00:31;;;;;;;30.92;18.23;;;15.80;95.30;;;;;;4958206;28;20042;-56
2021/09/03 08:02:57;;;;;;;32.85;18.48;;;15.90;95.20;;;;;;4955300;28;20034;-55
2021/09/03 08:05:22;;;;;;;34.63;18.75;;;16.00;94.50;;;;;;4979062;28;20042;-56
2021/09/03 08:07:48;;;;;;;31.38;17.80;;;16.10;94.20;;;;;;4971431;28;20137;-55
2021/09/03 08:10:15;;;;;;;34.67;18.85;;;16.20;94.70;;;;;;4974247;28;20093;-56
2021/09/03 08:12:42;;;;;;;37.17;19.98;;;16.30;94.30;;;;;;4991541;28;20046;-56
2021/09/03 08:15:09;;;;;;;34.38;19.02;;;16.40;94.50;;;;;;4974077;28;20100;-56
2021/09/03 08:17:36;;;;;;;32.60;17.85;;;16.40;94.00;;;;;;4954887;28;20053;-53
2021/09/03 08:20:07;;;;;;;30.65;16.77;;;16.50;94.10;;;;;;4937578;28;20439;-55
2021/09/03 08:22:35;;;;;;;31.48;18.48;;;16.60;94.00;;;;;;4966446;28;20039;-53
2021/09/03 08:25:01;;;;;;;38.28;19.70;;;16.70;93.40;;;;;;4987004;28;20522;-51
2021/09/03 08:27:27;;;;;;;31.20;19.17;;;16.70;93.40;;;;;;4932194;28;20035;-50
2021/09/03 08:29:53;;;;;;;32.90;18.52;;;16.80;93.80;;;;;;4967030;28;20034;-55
2021/09/03 08:32:19;;;;;;;35.35;17.35;;;16.80;94.00;;;;;;4971735;28;20518;-56
2021/09/03 08:34:44;;;;;;;33.28;16.80;;;16.90;93.20;;;;;;4990773;28;20034;-55
2021/09/03 08:37:10;;;;;;;36.42;16.88;;;16.90;92.80;;;;;;4991477;28;20038;-54
2021/09/03 08:39:36;;;;;;;31.55;16.25;;;16.90;92.40;;;;;;4950634;28;20054;-54
2021/09/03 08:42:03;;;;;;;31.27;16.42;;;16.70;92.90;;;;;;4972161;28;20038;-54
2021/09/03 08:44:30;;;;;;;30.08;15.90;;;16.60;93.20;;;;;;4989574;28;20066;-56
2021/09/03 08:46:56;;;;;;;27.23;14.75;;;16.60;93.40;;;;;;4969983;28;20133;-54
2021/09/03 08:49:23;;;;;;;26.85;15.18;;;16.60;93.10;;;;;;4965162;28;20042;-53
2021/09/03 08:51:53;;;;;;;31.25;14.90;;;16.70;92.90;;;;;;4991929;28;20042;-55
2021/09/03 08:54:20;;;;;;;36.80;15.90;;;16.80;93.20;;;;;;4975458;28;20057;-56
2021/09/03 08:56:46;;;;;;;26.83;14.23;;;16.90;92.90;;;;;;4991216;28;20042;-56
2021/09/03 08:59:11;;;;;;;31.02;14.85;;;17.10;93.20;;;;;;4991505;28;20046;-57
2021/09/03 09:01:37;;;;;;;30.73;14.30;;;17.20;92.40;;;;;;4981888;28;20057;-55
2021/09/03 09:04:14;;;;;;;30.95;14.00;;;17.30;92.40;;;;;;4987034;28;20450;-56
2021/09/03 09:07:03;;;;;;;24.85;12.95;;;17.40;91.90;;;;;;4992445;28;20043;-56
2021/09/03 09:09:31;;;;;;;24.88;12.90;;;17.50;91.50;;;;;;4994199;28;20034;-56
2021/09/03 09:12:05;;;;;;;25.83;12.80;;;17.70;91.60;;;;;;4995018;28;20046;-54
2021/09/03 09:15:10;;;;;;;24.60;12.70;;;17.80;91.50;;;;;;4982279;28;20038;-56
2021/09/03 09:17:43;;;;;;;22.55;11.68;;;17.90;90.80;;;;;;4976627;28;20554;-56
2021/09/03 09:20:11;;;;;;;27.40;12.82;;;18.00;90.60;;;;;;4994450;28;20042;-56
2021/09/03 09:22:58;;;;;;;23.90;12.63;;;18.10;90.30;;;;;;4994118;28;20038;-56
2021/09/03 09:25:30;;;;;;;24.20;12.25;;;18.10;90.20;;;;;;4993251;28;20046;-56
2021/09/03 09:28:17;;;;;;;21.73;12.63;;;18.20;89.00;;;;;;4985691;28;20518;-56
2021/09/03 09:30:43;;;;;;;25.15;12.80;;;18.20;88.70;;;;;;4982402;28;20039;-56
2021/09/03 09:33:21;;;;;;;20.40;11.75;;;18.20;88.70;;;;;;4973888;28;20039;-57
2021/09/03 09:35:49;;;;;;;23.65;12.43;;;18.30;89.70;;;;;;4993959;28;20061;-56
2021/09/03 09:38:18;;;;;;;23.92;11.60;;;18.30;89.10;;;;;;4976635;28;20491;-56
2021/09/03 09:40:57;;;;;;;27.98;11.88;;;18.40;89.30;;;;;;4992615;28;20046;-56
2021/09/03 09:43:38;;;;;;;20.30;11.55;;;18.50;88.80;;;;;;4986193;28;20113;-57
2021/09/03 09:46:07;;;;;;;22.75;11.07;;;18.60;90.10;;;;;;4974793;28;20053;-57
2021/09/03 09:48:33;;;;;;;22.95;11.50;;;18.70;89.50;;;;;;4960208;28;20064;-56
2021/09/03 09:50:58;;;;;;;24.42;11.25;;;18.90;88.10;;;;;;4993191;28;20121;-56
2021/09/03 09:53:26;;;;;;;22.92;11.65;;;18.90;87.90;;;;;;4994263;28;20049;-57
2021/09/03 09:55:51;;;;;;;23.05;11.40;;;19.00;86.90;;;;;;4993006;28;20053;-56
2021/09/03 09:58:19;;;;;;;22.02;11.55;;;19.00;87.80;;;;;;4994134;28;20038;-56
2021/09/03 10:00:45;;;;;;;18.23;10.13;;;19.10;85.90;;;;;;4993327;28;20394;-57
2021/09/03 10:03:11;;;;;;;17.50;10.48;;;19.20;86.70;;;;;;4989128;28;20049;-57
2021/09/03 10:05:37;;;;;;;27.60;10.70;;;19.20;86.30;;;;;;4980898;28;20384;-55
2021/09/03 10:08:04;;;;;;;21.15;9.55;;;19.20;85.10;;;;;;4989820;28;20125;-56
2021/09/03 10:10:30;;;;;;;21.65;9.40;;;19.10;85.30;;;;;;4991911;28;20038;-56
2021/09/03 10:12:56;;;;;;;19.88;9.45;;;18.90;86.40;;;;;;4993663;28;20041;-57
2021/09/03 10:15:22;;;;;;;21.05;10.32;;;18.80;87.30;;;;;;4975874;28;20046;-56
2021/09/03 10:17:48;;;;;;;22.20;10.00;;;18.80;86.30;;;;;;4973458;28;20478;-57
2021/09/03 10:20:16;;;;;;;21.58;10.43;;;18.80;86.70;;;;;;4990617;28;20041;-56
2021/09/03 10:22:43;;;;;;;21.20;10.27;;;18.70;87.40;;;;;;4948413;28;20036;-56
2021/09/03 10:25:10;;;;;;;22.25;9.93;;;18.90;86.60;;;;;;4986531;28;20038;-57
2021/09/03 10:27:36;;;;;;;24.30;9.70;;;19.10;85.50;;;;;;4986382;28;20041;-59
2021/09/03 10:30:17;;;;;;;17.02;8.85;;;19.20;85.30;;;;;;4978822;28;20046;-57
2021/09/03 10:32:43;;;;;;;21.73;9.70;;;19.30;85.80;;;;;;4973614;28;20101;-57
2021/09/03 10:35:20;;;;;;;18.65;10.18;;;19.40;83.40;;;;;;4969363;28;20035;-57
2021/09/03 10:37:47;;;;;;;18.30;9.68;;;19.40;83.30;;;;;;4986223;28;20093;-57
2021/09/03 10:40:22;;;;;;;21.45;10.02;;;19.50;82.90;;;;;;4958246;28;20561;-57
2021/09/03 10:42:55;;;;;;;17.35;9.05;;;19.50;83.50;;;;;;4963724;28;20546;-56
2021/09/03 10:45:30;;;;;;;16.17;9.18;;;19.60;84.00;;;;;;4991664;28;20042;-55
2021/09/03 10:47:55;;;;;;;16.60;8.05;;;19.60;82.80;;;;;;4971941;28;20038;-56
2021/09/03 10:50:27;;;;;;;18.25;9.50;;;19.80;80.60;;;;;;4984019;28;20042;-55
2021/09/03 10:53:07;;;;;;;20.80;10.38;;;19.80;80.40;;;;;;4992072;28;20034;-53
2021/09/03 10:56:12;;;;;;;16.48;9.30;;;19.60;81.30;;;;;;4974611;28;20581;-55
2021/09/03 10:58:41;;;;;;;23.40;9.43;;;19.60;82.60;;;;;;4974563;28;20141;-56
2021/09/03 11:01:10;;;;;;;18.10;9.27;;;19.70;81.40;;;;;;4991124;28;20529;-55
2021/09/03 11:03:55;;;;;;;21.33;9.98;;;19.80;81.30;;;;;;4966504;28;20047;-55
2021/09/03 11:06:32;;;;;;;20.45;9.25;;;19.80;81.10;;;;;;4979456;28;20101;-56
2021/09/03 11:08:58;;;;;;;22.20;10.10;;;19.80;80.40;;;;;;4991966;28;20117;-55
2021/09/03 11:11:38;;;;;;;18.38;9.38;;;19.80;78.60;;;;;;4992575;28;20145;-57
2021/09/03 11:14:05;;;;;;;20.92;9.98;;;19.90;79.70;;;;;;4992152;28;20065;-58
2021/09/03 11:16:35;;;;;;;20.55;9.98;;;19.80;80.90;;;;;;4992031;28;20074;-58
2021/09/03 11:19:05;;;;;;;20.13;10.13;;;19.90;82.10;;;;;;4992142;28;20050;-58
2021/09/03 11:21:32;;;;;;;18.13;9.88;;;20.00;79.30;;;;;;4978134;28;20125;-58
2021/09/03 11:23:58;;;;;;;20.95;9.23;;;20.10;79.50;;;;;;4991824;28;20059;-58
2021/09/03 11:26:27;;;;;;;20.08;9.80;;;20.00;80.20;;;;;;4991946;28;20529;-58
2021/09/03 11:28:53;;;;;;;17.20;8.32;;;20.00;79.40;;;;;;4970411;28;20051;-59
2021/09/03 11:31:21;;;;;;;15.57;8.45;;;20.00;80.10;;;;;;4982912;28;20399;-58
2021/09/03 11:33:48;;;;;;;19.40;9.57;;;20.10;79.80;;;;;;4991547;28;20092;-59
2021/09/03 11:36:14;;;;;;;17.45;8.90;;;20.00;79.90;;;;;;4991370;28;20050;-58
2021/09/03 11:38:41;;;;;;;17.05;8.73;;;20.10;79.60;;;;;;4984596;28;20030;-58
2021/09/03 11:41:10;;;;;;;17.27;8.90;;;20.10;79.00;;;;;;4986760;28;20039;-59
2021/09/03 11:43:36;;;;;;;19.95;9.00;;;20.20;78.40;;;;;;4982719;28;20034;-59
2021/09/03 11:46:19;;;;;;;17.05;9.13;;;20.20;78.50;;;;;;4990616;28;20165;-59
2021/09/03 11:48:46;;;;;;;16.33;8.77;;;20.20;79.50;;;;;;4992375;28;20514;-59
2021/09/03 11:51:22;;;;;;;20.05;9.45;;;20.30;79.40;;;;;;4991229;28;20034;-58
2021/09/03 11:53:48;;;;;;;19.08;9.65;;;20.30;78.60;;;;;;4992513;28;20410;-58
2021/09/03 11:56:15;;;;;;;17.80;8.65;;;20.40;78.00;;;;;;4991598;28;20495;-58
2021/09/03 11:58:42;;;;;;;17.58;9.63;;;20.30;78.40;;;;;;4973832;28;20038;-58
2021/09/03 12:01:08;;;;;;;18.75;8.30;;;20.40;79.70;;;;;;4990225;28;20042;-58
2021/09/03 12:03:37;;;;;;;17.67;8.70;;;20.50;79.80;;;;;;4992191;28;20392;-58
2021/09/03 12:06:08;;;;;;;18.42;8.70;;;20.50;78.50;;;;;;4989957;28;20042;-58
2021/09/03 12:08:35;;;;;;;16.52;8.68;;;20.60;77.90;;;;;;4978329;28;20038;-57
2021/09/03 12:11:09;;;;;;;19.02;7.80;;;20.70;75.60;;;;;;4973564;28;20056;-54
2021/09/03 12:13:41;;;;;;;17.05;8.18;;;20.70;75.30;;;;;;4991920;28;20042;-56
2021/09/03 12:16:17;;;;;;;18.50;7.63;;;20.70;75.70;;;;;;4991476;28;20078;-56
2021/09/03 12:18:44;;;;;;;16.17;7.95;;;20.70;76.20;;;;;;4991407;28;20046;-56
2021/09/03 12:21:10;;;;;;;15.95;7.50;;;20.70;76.30;;;;;;4985381;28;20411;-58
2021/09/03 12:23:43;;;;;;;14.25;7.63;;;20.70;77.10;;;;;;4966068;28;20046;-57
2021/09/03 12:26:17;;;;;;;18.55;7.90;;;20.80;75.00;;;;;;4974358;28;20726;-54
2021/09/03 12:28:44;;;;;;;19.27;8.20;;;20.80;74.80;;;;;;4990841;28;20491;-56